createdAt,value
2019-03-01T17:39:34.972Z,12.47
2019-03-01T17:42:03.480Z,13.97
2019-03-01T17:44:31.939Z,12.87
2019-03-01T17:47:00.462Z,11.07
2019-03-01T17:49:29.706Z,12.60
2019-03-01T17:51:59.162Z,10.03
2019-03-01T17:54:27.652Z,11.87
2019-03-01T17:56:57.206Z,11.37
2019-03-01T17:59:26.400Z,10.90
2019-03-01T18:01:54.866Z,11.10
2019-03-01T18:04:25.066Z,11.13
2019-03-01T18:06:53.549Z,9.53
2019-03-01T18:09:22.019Z,13.67
2019-03-01T18:11:50.486Z,12.40
2019-03-01T18:14:18.927Z,11.00
2019-03-01T18:16:47.326Z,8.23
2019-03-01T18:19:16.151Z,10.10
2019-03-01T18:21:46.429Z,12.00
2019-03-01T18:24:15.246Z,12.43
2019-03-01T18:26:43.898Z,11.80
2019-03-01T18:29:12.363Z,11.50
2019-03-01T18:31:40.779Z,9.80
2019-03-01T18:34:09.242Z,11.27
2019-03-01T18:36:37.654Z,10.43
2019-03-01T18:39:09.421Z,11.13
2019-03-01T18:41:38.746Z,8.53
2019-03-01T18:44:07.168Z,9.50
2019-03-01T18:46:35.655Z,7.83
2019-03-01T18:49:06.147Z,6.80
2019-03-01T18:51:34.157Z,8.87
2019-03-01T18:54:04.088Z,8.80
2019-03-01T18:56:32.921Z,8.90
2019-03-01T18:59:01.412Z,8.17
2019-03-01T19:01:29.870Z,8.03
2019-03-01T19:03:59.059Z,8.67
2019-03-01T19:06:29.265Z,8.03
2019-03-01T19:08:57.995Z,7.77
2019-03-01T19:11:26.375Z,9.73
2019-03-01T19:13:55.236Z,11.63
2019-03-01T19:16:25.361Z,7.90
2019-03-01T19:18:54.591Z,8.37
2019-03-01T19:21:23.069Z,8.20
2019-03-01T19:23:51.458Z,11.27
2019-03-01T19:26:19.867Z,8.23
2019-03-01T19:28:48.420Z,5.97
2019-03-01T19:31:16.907Z,9.03
2019-03-01T19:33:45.484Z,10.23
2019-03-01T19:36:13.946Z,11.10
2019-03-01T19:38:42.398Z,8.23
2019-03-01T19:41:10.858Z,10.57
2019-03-01T19:43:41.672Z,8.77
2019-03-01T19:46:09.300Z,9.53
2019-03-01T19:48:38.118Z,10.53
2019-03-01T19:51:06.660Z,12.93
2019-03-01T19:53:35.250Z,9.87
2019-03-01T19:56:03.683Z,12.77
2019-03-01T19:58:32.154Z,13.20
2019-03-01T20:01:01.380Z,12.30
2019-03-01T20:03:30.024Z,10.30
2019-03-01T20:05:58.409Z,8.33
2019-03-01T20:08:29.782Z,8.00
2019-03-01T20:10:56.955Z,5.87
2019-03-01T20:13:25.411Z,5.73
2019-03-01T20:15:53.940Z,9.60
2019-03-01T20:18:22.414Z,9.30
2019-03-01T20:20:50.819Z,9.10
2019-03-01T20:23:19.205Z,9.03
2019-03-01T20:25:50.655Z,9.37
2019-03-01T20:28:17.846Z,8.10
2019-03-01T20:30:46.698Z,7.07
2019-03-01T20:33:15.178Z,9.77
2019-03-01T20:35:43.648Z,7.93
2019-03-01T20:38:12.038Z,7.67
2019-03-01T20:40:40.538Z,7.30
2019-03-01T20:43:09.043Z,10.00
2019-03-01T20:45:39.352Z,6.13
2019-03-01T20:48:07.775Z,9.30
2019-03-01T20:50:36.631Z,8.97
2019-03-01T20:53:05.346Z,8.47
2019-03-01T20:55:37.042Z,13.63
2019-03-01T20:58:04.338Z,12.53
2019-03-01T21:00:32.913Z,13.23
2019-03-01T21:03:01.315Z,11.47
2019-03-01T21:05:30.548Z,10.07
2019-03-01T21:07:59.134Z,10.13
2019-03-01T21:10:29.461Z,9.70
2019-03-01T21:12:57.879Z,11.13
2019-03-01T21:15:26.351Z,9.10
2019-03-01T21:17:57.085Z,11.57
2019-03-01T21:20:24.981Z,9.47
2019-03-01T21:22:53.567Z,8.97
2019-03-01T21:25:23.174Z,11.60
2019-03-01T21:27:51.595Z,11.70
2019-03-01T21:30:33.705Z,9.37
2019-03-01T21:33:02.362Z,14.87
2019-03-01T21:35:30.785Z,11.93
2019-03-01T21:37:59.171Z,13.17
2019-03-01T21:40:27.638Z,12.80
2019-03-01T21:42:59.710Z,12.07
2019-03-01T21:45:26.203Z,11.17
2019-03-01T21:47:54.633Z,10.13
2019-03-01T21:50:23.018Z,12.90
2019-03-01T21:52:51.516Z,13.27
2019-03-01T21:55:28.006Z,13.20
2019-03-01T21:57:54.641Z,13.63
2019-03-01T22:00:29.370Z,11.97
2019-03-01T22:02:55.369Z,10.27
2019-03-01T22:05:23.786Z,8.60
2019-03-01T22:07:52.251Z,9.60
2019-03-01T22:10:20.641Z,13.40
2019-03-01T22:12:49.067Z,8.77
2019-03-01T22:15:26.796Z,11.57
2019-03-01T22:17:56.220Z,11.53
2019-03-01T22:20:24.593Z,12.90
2019-03-01T22:22:53.552Z,16.50
2019-03-01T22:25:21.943Z,13.20
2019-03-01T22:27:50.427Z,16.33
2019-03-01T22:30:23.041Z,24.07
2019-03-01T22:32:52.255Z,19.60
2019-03-01T22:35:20.681Z,22.60
2019-03-01T22:37:49.080Z,21.17
2019-03-01T22:40:17.549Z,23.97
2019-03-01T22:42:49.721Z,23.17
2019-03-01T22:45:18.185Z,21.63
2019-03-01T22:47:46.636Z,19.07
2019-03-01T22:50:17.877Z,22.00
2019-03-01T22:52:46.277Z,22.30
2019-03-01T22:55:18.884Z,24.00
2019-03-01T22:57:47.425Z,23.07
2019-03-01T23:00:47.726Z,22.07
2019-03-01T23:03:19.001Z,23.90
2019-03-01T23:05:48.026Z,19.97
2019-03-01T23:08:16.478Z,20.33
2019-03-01T23:10:44.907Z,23.37
2019-03-01T23:13:16.958Z,24.40
2019-03-01T23:15:44.535Z,19.20
2019-03-01T23:18:13.159Z,21.40
2019-03-01T23:20:41.957Z,17.53
2019-03-01T23:23:10.363Z,22.60
2019-03-01T23:25:39.106Z,21.40
2019-03-01T23:28:08.228Z,17.33
2019-03-01T23:30:37.589Z,17.07
2019-03-01T23:33:05.996Z,22.63
2019-03-01T23:35:34.496Z,21.67
2019-03-01T23:38:03.009Z,24.23
2019-03-01T23:40:32.714Z,23.53
2019-03-01T23:43:01.606Z,23.13
2019-03-01T23:45:29.994Z,17.33
2019-03-01T23:47:58.407Z,15.23
2019-03-01T23:50:26.816Z,15.30
2019-03-01T23:52:58.921Z,16.93
2019-03-01T23:55:25.353Z,18.87
2019-03-01T23:57:53.802Z,20.17
